Terminal Aerodrome Forecast
Issued by NWS Grand Forks, ND

Home | Current Version | Previous Version | Graphics & Text | Print | Product List | Glossary On
Versions: 1 2 3 4 5 6 7 8 9 10 11 12 13 14 15 16 17 18
000
FTUS43 KFGF 181730
TAFGFK
TAF
KGFK 181730Z 1818/1918 32014G23KT P6SM SCT024
     FM182300 29012KT P6SM SKC
     FM190400 VRB06KT P6SM SKC
     FM191400 20008KT P6SM SCT150=

USA.gov is the U.S. government's official web portal to all federal, state and local government web resources and services.